Time;durP1;ratioP1;P1;durP2;ratioP2;P2;SDS_P1;SDS_P2;PMS_P1;PMS_P2;Temp;Humidity;BMP_temperature;BMP_pressure;BME280_temperature;BME280_humidity;BME280_pressure;Samples;Min_cycle;Max_cycle;Signal;HPM_P1;HPM_P2
2022/07/16 00:01:43;;;;;;;3.63;2.00;;;17.50;67.10;;;;;;6199779;28;20050;-79
2022/07/16 00:04:45;;;;;;;5.97;1.90;;;17.40;67.80;;;;;;6211576;28;20050;-82
2022/07/16 00:07:46;;;;;;;3.95;2.08;;;17.40;68.00;;;;;;6227954;28;20044;-81
2022/07/16 00:10:48;;;;;;;2.97;2.10;;;17.30;68.60;;;;;;6228394;28;20060;-78
2022/07/16 00:13:50;;;;;;;8.50;2.25;;;17.20;69.00;;;;;;6228575;28;20072;-78
2022/07/16 00:16:53;;;;;;;3.28;2.15;;;17.20;69.70;;;;;;6227900;28;20058;-80
2022/07/16 00:19:54;;;;;;;4.57;2.38;;;17.20;69.80;;;;;;6227556;28;20443;-78
2022/07/16 00:22:55;;;;;;;4.35;2.35;;;17.20;70.00;;;;;;6224120;28;20041;-83
2022/07/16 00:25:57;;;;;;;5.68;3.05;;;17.10;70.10;;;;;;6227735;28;20176;-82
2022/07/16 00:28:59;;;;;;;8.25;1.98;;;17.00;70.40;;;;;;6227676;28;20045;-78
2022/07/16 00:32:02;;;;;;;6.57;2.40;;;17.00;70.80;;;;;;6227529;28;20060;-80
2022/07/16 00:35:05;;;;;;;5.10;2.28;;;16.90;71.00;;;;;;6227673;28;20050;-80
2022/07/16 00:38:07;;;;;;;3.47;2.03;;;16.90;71.60;;;;;;6227815;28;20058;-79
2022/07/16 00:41:16;;;;;;;5.50;2.15;;;16.90;71.70;;;;;;6227102;28;20038;-78
2022/07/16 00:44:19;;;;;;;6.53;1.70;;;16.80;71.90;;;;;;6227189;28;20056;-79
2022/07/16 00:47:22;;;;;;;6.35;2.55;;;16.70;71.80;;;;;;6227662;28;20046;-79
2022/07/16 00:50:24;;;;;;;4.75;2.08;;;16.60;72.10;;;;;;6227438;28;20045;-80
2022/07/16 00:53:26;;;;;;;7.15;2.70;;;16.50;72.60;;;;;;6227290;28;20046;-78
2022/07/16 00:56:28;;;;;;;4.13;2.08;;;16.50;73.00;;;;;;6227006;28;20042;-80
2022/07/16 00:59:29;;;;;;;3.95;1.83;;;16.40;73.40;;;;;;6227118;28;20057;-79
2022/07/16 01:02:34;;;;;;;4.22;2.40;;;16.30;74.00;;;;;;6227694;28;20053;-81
2022/07/16 01:05:38;;;;;;;7.30;2.45;;;16.30;74.10;;;;;;6226487;28;20397;-78
2022/07/16 01:08:42;;;;;;;10.23;2.35;;;16.20;74.60;;;;;;6226302;28;20054;-80
2022/07/16 01:11:44;;;;;;;6.53;2.22;;;16.20;75.00;;;;;;6226441;28;20049;-79
2022/07/16 01:14:46;;;;;;;3.45;1.75;;;16.20;75.00;;;;;;6226577;28;20420;-81
2022/07/16 01:17:49;;;;;;;4.05;2.78;;;16.10;75.50;;;;;;6227299;28;20061;-78
2022/07/16 01:20:51;;;;;;;4.85;2.55;;;16.10;76.00;;;;;;6226434;28;20089;-80
2022/07/16 01:23:56;;;;;;;5.60;2.50;;;16.00;76.20;;;;;;6226634;28;20053;-79
2022/07/16 01:26:57;;;;;;;4.03;2.30;;;15.90;76.50;;;;;;6226552;28;20050;-78
2022/07/16 01:29:59;;;;;;;4.57;2.40;;;15.90;76.90;;;;;;6226268;28;20392;-78
2022/07/16 01:33:01;;;;;;;3.40;2.20;;;15.80;77.20;;;;;;6226644;28;20519;-79
2022/07/16 01:36:06;;;;;;;6.20;2.28;;;15.70;77.80;;;;;;6226264;28;20053;-78
2022/07/16 01:39:09;;;;;;;4.00;2.20;;;15.70;77.80;;;;;;6226487;28;20057;-82
2022/07/16 01:42:11;;;;;;;4.40;2.47;;;15.70;78.10;;;;;;6226307;28;20053;-78
2022/07/16 01:45:13;;;;;;;4.60;2.45;;;15.70;78.50;;;;;;6226306;28;20042;-79
2022/07/16 01:48:16;;;;;;;4.55;2.60;;;15.60;78.80;;;;;;6226018;28;20419;-79
2022/07/16 01:51:18;;;;;;;8.43;3.05;;;15.60;79.10;;;;;;6225308;28;20415;-78
2022/07/16 01:54:21;;;;;;;3.92;2.58;;;15.50;79.60;;;;;;6226482;28;20050;-80
2022/07/16 01:57:23;;;;;;;4.82;2.65;;;15.40;79.80;;;;;;6225971;28;20610;-77
2022/07/16 02:00:24;;;;;;;4.55;2.67;;;15.40;80.40;;;;;;6225647;28;20048;-78
2022/07/16 02:03:26;;;;;;;4.28;2.38;;;15.30;80.60;;;;;;6225836;28;20050;-78
2022/07/16 02:06:28;;;;;;;3.67;2.60;;;15.30;80.90;;;;;;6225568;28;20525;-78
2022/07/16 02:09:31;;;;;;;8.50;3.67;;;15.20;81.20;;;;;;6224655;28;20053;-80
2022/07/16 02:12:33;;;;;;;4.82;2.47;;;15.20;81.50;;;;;;6225444;28;20054;-78
2022/07/16 02:15:35;;;;;;;4.88;3.03;;;15.10;81.70;;;;;;6225503;28;20056;-78
2022/07/16 02:18:39;;;;;;;4.68;2.28;;;15.00;82.00;;;;;;6225116;28;20525;-79
2022/07/16 02:21:41;;;;;;;5.68;3.60;;;15.00;82.40;;;;;;6226028;28;20054;-79
2022/07/16 02:24:44;;;;;;;5.13;2.78;;;15.00;82.70;;;;;;6224254;28;20056;-78
2022/07/16 02:31:05;;;;;;;4.88;3.20;;;14.90;83.20;;;;;;6224905;28;20415;-80
2022/07/16 02:34:07;;;;;;;4.32;2.80;;;14.90;83.50;;;;;;6226383;28;20056;-80
2022/07/16 02:37:09;;;;;;;4.15;2.50;;;14.80;83.70;;;;;;6225329;28;20073;-81
2022/07/16 02:40:13;;;;;;;4.57;2.60;;;14.80;83.90;;;;;;6224635;28;20052;-80
2022/07/16 02:43:15;;;;;;;4.70;2.45;;;14.80;84.20;;;;;;6224929;28;20042;-80
2022/07/16 02:46:17;;;;;;;5.50;2.50;;;14.70;84.30;;;;;;6225259;28;20046;-79
2022/07/16 02:49:19;;;;;;;5.43;2.75;;;14.60;84.70;;;;;;6224505;28;20050;-79
2022/07/16 02:52:20;;;;;;;3.72;2.63;;;14.50;85.20;;;;;;6224307;28;20415;-78
2022/07/16 02:55:24;;;;;;;5.65;2.72;;;14.50;85.50;;;;;;6224540;28;20058;-79
2022/07/16 02:58:26;;;;;;;4.60;2.53;;;14.40;85.70;;;;;;6225341;28;20054;-80
2022/07/16 03:01:28;;;;;;;15.23;3.33;;;14.40;86.00;;;;;;6223993;28;20069;-81
2022/07/16 03:04:30;;;;;;;2.83;2.10;;;14.40;86.30;;;;;;6224749;28;20050;-82
2022/07/16 03:07:31;;;;;;;6.15;2.75;;;14.40;86.50;;;;;;6224105;28;20046;-80
2022/07/16 03:10:35;;;;;;;6.03;3.13;;;14.30;86.50;;;;;;6223800;28;20057;-78
2022/07/16 03:13:36;;;;;;;3.38;2.60;;;14.30;86.50;;;;;;6224297;28;20038;-79
2022/07/16 03:16:38;;;;;;;4.55;2.78;;;14.30;86.60;;;;;;6224306;28;20100;-81
2022/07/16 03:19:40;;;;;;;4.75;2.40;;;14.20;86.90;;;;;;6223546;28;20045;-78
2022/07/16 03:22:43;;;;;;;4.15;2.72;;;14.30;86.90;;;;;;6224328;28;20407;-78
2022/07/16 03:25:47;;;;;;;4.13;2.45;;;14.20;86.90;;;;;;6224363;28;20065;-80
2022/07/16 03:28:48;;;;;;;4.38;2.45;;;14.20;86.80;;;;;;6223857;28;20120;-78
2022/07/16 03:31:50;;;;;;;5.07;2.80;;;14.30;87.20;;;;;;6225718;28;20056;-81
2022/07/16 03:34:52;;;;;;;3.80;2.17;;;14.30;86.90;;;;;;6225941;28;20046;-80
2022/07/16 03:41:14;;;;;;;4.70;2.92;;;14.30;87.30;;;;;;6224823;28;20050;-80
2022/07/16 03:44:16;;;;;;;4.60;2.20;;;14.30;87.10;;;;;;6224233;28;20041;-79
2022/07/16 03:47:17;;;;;;;3.85;2.75;;;14.30;87.00;;;;;;6224647;28;20045;-81
2022/07/16 03:50:19;;;;;;;4.45;2.60;;;14.30;87.40;;;;;;6224550;28;20056;-79
2022/07/16 03:53:21;;;;;;;4.32;2.47;;;14.20;87.20;;;;;;6223629;28;20050;-78
2022/07/16 03:56:25;;;;;;;6.82;3.05;;;14.30;87.60;;;;;;6223724;28;20050;-79
2022/07/16 03:59:27;;;;;;;5.28;2.67;;;14.30;87.80;;;;;;6223617;28;20053;-79
2022/07/16 04:02:28;;;;;;;11.10;2.92;;;14.40;88.00;;;;;;6224346;28;20049;-78
2022/07/16 04:05:30;;;;;;;5.20;2.50;;;14.50;87.60;;;;;;6223767;28;20400;-81
2022/07/16 04:08:32;;;;;;;4.05;2.53;;;14.50;87.60;;;;;;6223866;28;20053;-79
2022/07/16 04:11:35;;;;;;;3.60;2.63;;;14.50;87.60;;;;;;6226654;28;20605;-81
2022/07/16 04:14:37;;;;;;;8.02;2.83;;;14.50;87.70;;;;;;6233513;28;20050;-81
2022/07/16 04:17:39;;;;;;;4.60;2.70;;;14.40;87.80;;;;;;6233784;28;20050;-81
2022/07/16 04:20:41;;;;;;;4.32;2.30;;;14.40;87.60;;;;;;6232757;28;20056;-81
2022/07/16 04:23:43;;;;;;;2.63;2.17;;;14.50;87.60;;;;;;6234267;28;20048;-80
2022/07/16 04:26:46;;;;;;;4.97;2.60;;;14.60;87.50;;;;;;6234456;28;20056;-81
2022/07/16 04:29:47;;;;;;;5.03;2.55;;;14.70;86.90;;;;;;6234188;28;20525;-81
2022/07/16 04:32:49;;;;;;;3.08;1.85;;;14.90;86.80;;;;;;6232155;28;20053;-81
2022/07/16 04:35:51;;;;;;;4.30;2.75;;;15.00;86.50;;;;;;6233279;28;20137;-81
2022/07/16 04:38:53;;;;;;;3.88;2.35;;;15.10;86.10;;;;;;6231902;28;20640;-81
2022/07/16 04:41:56;;;;;;;4.32;2.15;;;15.20;85.80;;;;;;6233966;28;20054;-81
2022/07/16 04:44:58;;;;;;;3.33;2.33;;;15.40;85.50;;;;;;6232659;28;20049;-81
2022/07/16 04:47:59;;;;;;;6.95;1.60;;;16.00;84.30;;;;;;6234601;28;20451;-81
2022/07/16 04:51:01;;;;;;;7.15;2.88;;;17.90;78.80;;;;;;6236357;28;20508;-81
2022/07/16 04:54:03;;;;;;;4.03;2.20;;;20.00;71.60;;;;;;6232366;28;20408;-81
2022/07/16 04:57:06;;;;;;;4.40;2.30;;;21.70;65.00;;;;;;6236766;28;20046;-81
2022/07/16 05:00:09;;;;;;;4.18;2.28;;;23.20;59.50;;;;;;6237531;28;20050;-82
2022/07/16 05:03:11;;;;;;;5.15;2.60;;;24.40;55.00;;;;;;6236968;28;20045;-79
2022/07/16 05:06:12;;;;;;;3.78;2.53;;;25.50;51.70;;;;;;6238454;28;20060;-79
2022/07/16 05:09:14;;;;;;;4.10;2.60;;;26.30;49.10;;;;;;6238103;28;20076;-79
2022/07/16 05:12:17;;;;;;;4.13;1.75;;;27.00;47.10;;;;;;6235277;28;20396;-79
2022/07/16 05:15:19;;;;;;;5.07;2.13;;;27.50;45.70;;;;;;6238146;28;20054;-79
2022/07/16 05:18:21;;;;;;;4.40;2.25;;;28.30;44.40;;;;;;6237954;28;20045;-79
2022/07/16 05:21:22;;;;;;;4.70;2.45;;;29.00;43.10;;;;;;6237575;28;20109;-79
2022/07/16 05:24:24;;;;;;;4.82;2.25;;;29.70;41.90;;;;;;6238026;28;20049;-82
2022/07/16 05:27:28;;;;;;;4.18;2.15;;;30.40;40.80;;;;;;6236762;28;20046;-79
2022/07/16 05:30:29;;;;;;;4.55;1.80;;;31.00;39.70;;;;;;6236640;28;20056;-79
2022/07/16 05:33:31;;;;;;;3.13;1.00;;;31.50;38.80;;;;;;6235521;28;20050;-80
2022/07/16 05:36:33;;;;;;;6.65;2.42;;;31.80;38.30;;;;;;6233621;28;20045;-79
2022/07/16 05:39:35;;;;;;;3.30;1.90;;;31.30;37.90;;;;;;6234751;28;20046;-82
2022/07/16 05:42:38;;;;;;;3.60;1.80;;;30.10;39.10;;;;;;6237934;28;20053;-81
2022/07/16 05:45:40;;;;;;;2.28;1.55;;;28.70;41.00;;;;;;6236011;28;20046;-81
2022/07/16 05:48:42;;;;;;;4.00;1.67;;;27.90;42.50;;;;;;6233223;28;20053;-79
2022/07/16 05:51:43;;;;;;;6.88;2.33;;;27.40;43.70;;;;;;6236236;28;20050;-78
2022/07/16 05:54:45;;;;;;;3.97;1.30;;;27.10;43.90;;;;;;6233125;28;20057;-79
2022/07/16 05:57:48;;;;;;;3.40;1.70;;;27.10;44.20;;;;;;6236373;28;20058;-81
2022/07/16 06:00:50;;;;;;;3.83;1.58;;;27.00;44.00;;;;;;6230777;28;20502;-79
2022/07/16 06:03:52;;;;;;;3.75;1.75;;;27.10;44.00;;;;;;6236073;28;20427;-79
2022/07/16 06:06:55;;;;;;;3.53;1.67;;;27.20;44.10;;;;;;6234564;28;20045;-79
2022/07/16 06:09:57;;;;;;;12.02;1.90;;;27.30;44.20;;;;;;6234906;28;20131;-79
2022/07/16 06:13:00;;;;;;;6.78;2.28;;;27.30;44.10;;;;;;6235803;28;20491;-78
2022/07/16 06:16:02;;;;;;;5.28;1.73;;;27.50;43.90;;;;;;6234146;28;20045;-78
2022/07/16 06:19:04;;;;;;;4.97;2.25;;;27.60;43.70;;;;;;6235142;28;20053;-79
2022/07/16 06:22:05;;;;;;;3.67;1.70;;;27.30;44.00;;;;;;6235411;28;20046;-82
2022/07/16 06:25:08;;;;;;;4.38;2.03;;;26.60;45.00;;;;;;6234764;28;20534;-78
2022/07/16 06:28:11;;;;;;;2.42;1.48;;;26.20;46.00;;;;;;6236181;28;20049;-82
2022/07/16 06:31:13;;;;;;;3.97;1.25;;;25.90;46.50;;;;;;6235792;28;20053;-79
2022/07/16 06:34:14;;;;;;;3.78;2.15;;;25.70;47.20;;;;;;6234440;28;20068;-79
2022/07/16 06:37:16;;;;;;;3.03;1.25;;;25.60;47.20;;;;;;6232785;28;20046;-78
2022/07/16 06:40:18;;;;;;;2.95;1.45;;;25.50;47.00;;;;;;6232490;28;20491;-78
2022/07/16 06:43:21;;;;;;;4.22;1.60;;;25.50;47.20;;;;;;6234628;28;20056;-82
2022/07/16 06:46:23;;;;;;;8.95;2.13;;;25.50;47.20;;;;;;6234981;28;20060;-81
2022/07/16 06:49:25;;;;;;;4.07;1.30;;;25.60;47.10;;;;;;6234055;28;20526;-82
2022/07/16 06:52:27;;;;;;;4.03;1.40;;;25.60;46.50;;;;;;6233262;28;20056;-79
2022/07/16 06:55:29;;;;;;;9.23;1.38;;;25.70;46.70;;;;;;6232185;28;20050;-79
2022/07/16 06:58:32;;;;;;;4.20;1.10;;;25.80;46.60;;;;;;6231290;28;20063;-79
2022/07/16 07:01:33;;;;;;;2.60;1.38;;;26.00;44.20;;;;;;6230442;28;20053;-79
2022/07/16 07:04:35;;;;;;;1.83;0.93;;;26.00;44.20;;;;;;6232327;28;20056;-79
2022/07/16 07:07:37;;;;;;;4.95;0.90;;;26.10;43.30;;;;;;6232515;28;20415;-79
2022/07/16 07:10:38;;;;;;;3.90;0.55;;;26.10;43.20;;;;;;6228444;28;20128;-80
2022/07/16 07:13:42;;;;;;;3.95;1.10;;;26.30;42.30;;;;;;6224814;28;20053;-79
2022/07/16 07:16:43;;;;;;;2.50;0.80;;;26.40;40.90;;;;;;6225673;28;20052;-79
2022/07/16 07:19:45;;;;;;;5.05;1.13;;;26.50;41.00;;;;;;6224951;28;20553;-79
2022/07/16 07:22:47;;;;;;;3.25;0.77;;;26.50;40.60;;;;;;6198199;28;20053;-77
2022/07/16 07:25:48;;;;;;;3.08;1.00;;;26.60;40.70;;;;;;6227655;28;20060;-79
2022/07/16 07:28:51;;;;;;;6.43;1.30;;;26.90;39.70;;;;;;6226482;28;20046;-79
2022/07/16 07:31:53;;;;;;;0.95;0.50;;;27.00;39.80;;;;;;6224557;28;20054;-81
2022/07/16 07:34:55;;;;;;;4.50;1.25;;;27.20;39.60;;;;;;6225548;28;20050;-81
2022/07/16 07:37:57;;;;;;;4.15;0.98;;;27.30;39.30;;;;;;6226455;28;20071;-80
2022/07/16 07:40:59;;;;;;;1.45;0.68;;;27.50;39.40;;;;;;6225330;28;20056;-77
2022/07/16 07:44:02;;;;;;;4.40;0.77;;;27.70;38.60;;;;;;6226494;28;20056;-80
2022/07/16 07:47:03;;;;;;;2.58;0.90;;;27.70;37.80;;;;;;6226060;28;20046;-79
2022/07/16 07:50:06;;;;;;;0.52;0.43;;;27.50;38.00;;;;;;6225907;28;20145;-79
2022/07/16 07:53:08;;;;;;;5.65;1.13;;;27.30;38.50;;;;;;6224972;28;20048;-78
2022/07/16 07:56:10;;;;;;;4.22;0.88;;;27.40;38.40;;;;;;6224887;28;20046;-79
2022/07/16 07:59:14;;;;;;;4.70;0.77;;;27.60;38.70;;;;;;6224772;28;20108;-79
2022/07/16 08:02:15;;;;;;;2.53;0.80;;;27.80;38.30;;;;;;6225475;28;20084;-79
2022/07/16 08:05:18;;;;;;;5.50;1.00;;;28.00;38.30;;;;;;6226847;28;20745;-80
2022/07/16 08:08:19;;;;;;;4.95;0.80;;;28.30;37.70;;;;;;6226541;28;20046;-79
2022/07/16 08:11:21;;;;;;;1.27;0.38;;;28.50;36.60;;;;;;6225344;28;20613;-80
2022/07/16 08:14:24;;;;;;;2.60;0.50;;;28.20;35.80;;;;;;6223984;28;20053;-81
2022/07/16 08:17:26;;;;;;;2.55;0.63;;;28.20;36.60;;;;;;6226376;28;20053;-79
2022/07/16 08:20:28;;;;;;;6.43;1.00;;;28.10;36.60;;;;;;6225669;28;20099;-78
2022/07/16 08:26:49;;;;;;;6.03;0.90;;;28.40;35.70;;;;;;6204411;28;20125;-82
2022/07/16 08:29:53;;;;;;;2.05;0.77;;;28.10;36.20;;;;;;6205787;28;20050;-83
2022/07/16 08:32:54;;;;;;;0.63;0.38;;;28.30;36.10;;;;;;6206088;28;20046;-80
2022/07/16 08:35:56;;;;;;;2.45;0.32;;;28.50;35.80;;;;;;6207263;28;20061;-80
2022/07/16 08:38:58;;;;;;;5.97;0.82;;;28.70;35.20;;;;;;6206065;28;20050;-80
2022/07/16 08:42:00;;;;;;;2.85;0.52;;;28.90;34.90;;;;;;6206374;28;20056;-80
2022/07/16 08:45:06;;;;;;;2.83;0.85;;;29.10;34.70;;;;;;6205575;28;20527;-80
2022/07/16 08:48:08;;;;;;;2.95;0.77;;;29.20;34.70;;;;;;6205305;28;20060;-81
2022/07/16 08:51:10;;;;;;;2.22;0.60;;;29.30;34.90;;;;;;6207642;28;20050;-77
2022/07/16 08:54:16;;;;;;;6.57;0.70;;;29.60;34.50;;;;;;6230518;28;20072;-79
2022/07/16 08:57:18;;;;;;;2.20;0.77;;;29.70;34.10;;;;;;6229981;28;20061;-80
2022/07/16 09:00:21;;;;;;;1.60;0.40;;;29.80;34.00;;;;;;6228476;28;20080;-79
2022/07/16 09:03:23;;;;;;;2.40;0.50;;;29.80;34.30;;;;;;6229562;28;20060;-78
2022/07/16 09:06:26;;;;;;;2.80;0.40;;;29.90;34.30;;;;;;6230028;28;20185;-79
2022/07/16 09:09:27;;;;;;;5.50;0.93;;;30.00;34.30;;;;;;6229382;28;20045;-79
2022/07/16 09:12:35;;;;;;;3.40;0.40;;;30.00;34.10;;;;;;6228076;28;20042;-79
2022/07/16 09:15:40;;;;;;;2.38;0.65;;;30.20;34.30;;;;;;6225614;28;20045;-78
2022/07/16 09:18:42;;;;;;;1.38;0.30;;;30.30;33.70;;;;;;6227482;28;20515;-76
2022/07/16 09:22:05;;;;;;;3.45;0.38;;;30.30;33.90;;;;;;6227770;28;20049;-78
2022/07/16 09:25:07;;;;;;;2.50;0.60;;;30.40;33.70;;;;;;6230403;28;20054;-81
2022/07/16 09:28:09;;;;;;;1.55;0.70;;;30.40;34.10;;;;;;6229008;28;20049;-80
2022/07/16 09:31:31;;;;;;;2.85;0.63;;;30.30;33.50;;;;;;6228725;28;20112;-80
2022/07/16 09:34:32;;;;;;;1.45;0.65;;;30.00;34.20;;;;;;6228840;28;20045;-79
2022/07/16 09:37:48;;;;;;;4.15;0.80;;;30.20;33.90;;;;;;6226892;28;20503;-80
2022/07/16 09:40:49;;;;;;;5.25;0.70;;;30.40;33.20;;;;;;6227439;28;20042;-80
2022/07/16 09:43:52;;;;;;;3.97;0.43;;;30.30;33.40;;;;;;6229442;28;20042;-80
2022/07/16 09:47:16;;;;;;;3.92;0.60;;;30.30;33.50;;;;;;6228061;28;20056;-78
2022/07/16 09:50:17;;;;;;;1.88;0.50;;;30.40;33.20;;;;;;6220918;28;20054;-79
2022/07/16 09:53:21;;;;;;;1.95;0.68;;;30.60;33.40;;;;;;6226460;28;20157;-78
2022/07/16 09:56:24;;;;;;;1.58;0.63;;;30.60;32.80;;;;;;6227375;28;20056;-81
2022/07/16 09:59:26;;;;;;;3.45;0.40;;;30.80;32.70;;;;;;6227846;28;20129;-80
2022/07/16 10:02:30;;;;;;;1.95;0.52;;;31.00;32.40;;;;;;6228127;28;20181;-79
2022/07/16 10:05:32;;;;;;;4.10;0.65;;;31.00;32.50;;;;;;6229427;28;20042;-80
2022/07/16 10:08:34;;;;;;;3.47;0.38;;;31.10;32.50;;;;;;6228037;28;20053;-79
2022/07/16 10:11:36;;;;;;;2.55;0.82;;;31.50;31.70;;;;;;6251702;22;20422;-77
2022/07/16 10:14:42;;;;;;;2.40;0.63;;;32.50;31.40;;;;;;6227027;28;20538;-79
2022/07/16 10:17:45;;;;;;;3.90;0.50;;;33.90;30.50;;;;;;6226998;28;20131;-78
2022/07/16 10:21:01;;;;;;;3.40;0.63;;;34.80;29.20;;;;;;6226086;28;20050;-78
2022/07/16 10:24:06;;;;;;;6.30;0.82;;;34.60;29.10;;;;;;6221913;28;20409;-78
2022/07/16 10:27:20;;;;;;;1.20;0.28;;;34.30;29.10;;;;;;6227151;28;20054;-78
2022/07/16 10:30:25;;;;;;;2.20;0.70;;;33.50;28.70;;;;;;6223339;28;20050;-78
2022/07/16 10:33:29;;;;;;;1.45;0.43;;;32.90;29.50;;;;;;6201556;28;20054;-77
2022/07/16 10:36:44;;;;;;;4.10;0.50;;;32.50;29.10;;;;;;6203040;28;20523;-79
2022/07/16 10:40:10;;;;;;;1.10;0.47;;;32.30;29.50;;;;;;6202041;28;20419;-79
2022/07/16 10:43:15;;;;;;;1.05;0.52;;;32.10;29.50;;;;;;6202346;28;20491;-79
2022/07/16 10:46:26;;;;;;;1.58;0.57;;;32.20;28.90;;;;;;6203722;28;20067;-78
2022/07/16 10:49:31;;;;;;;3.20;0.43;;;32.30;28.30;;;;;;6202830;28;20051;-79
2022/07/16 10:52:42;;;;;;;1.10;0.40;;;32.00;28.60;;;;;;6216106;28;20054;-79
2022/07/16 10:55:44;;;;;;;1.40;0.40;;;32.00;28.80;;;;;;6218682;28;20042;-77
2022/07/16 10:58:47;;;;;;;3.60;0.35;;;32.10;29.30;;;;;;6227280;28;20115;-79
2022/07/16 11:01:51;;;;;;;3.35;0.52;;;32.40;29.40;;;;;;6226895;28;20060;-78
2022/07/16 11:04:54;;;;;;;1.58;0.52;;;32.60;29.50;;;;;;6226816;28;20057;-79
2022/07/16 11:08:07;;;;;;;1.05;0.63;;;32.80;30.00;;;;;;6226741;28;20045;-78
2022/07/16 11:11:09;;;;;;;1.02;0.40;;;33.10;29.50;;;;;;6226735;28;20045;-76
2022/07/16 11:14:11;;;;;;;3.45;0.50;;;33.30;28.90;;;;;;6226673;28;20042;-78
2022/07/16 11:17:13;;;;;;;4.63;0.57;;;33.50;29.80;;;;;;6224528;28;20173;-78
2022/07/16 11:20:16;;;;;;;4.20;0.88;;;33.90;29.00;;;;;;6225515;28;20490;-78
2022/07/16 11:23:19;;;;;;;0.80;0.30;;;34.20;28.90;;;;;;6225863;28;20049;-78
2022/07/16 11:26:22;;;;;;;1.02;0.20;;;34.30;28.80;;;;;;6223710;28;20050;-76
2022/07/16 11:29:25;;;;;;;2.42;0.30;;;34.40;28.60;;;;;;6226704;28;20206;-78
2022/07/16 11:32:27;;;;;;;2.60;0.57;;;34.60;28.70;;;;;;6227629;28;20057;-78
2022/07/16 11:35:30;;;;;;;5.78;0.50;;;34.70;28.70;;;;;;6225449;28;20049;-78
2022/07/16 11:38:32;;;;;;;2.28;1.30;;;34.70;28.90;;;;;;6226628;28;20053;-79
2022/07/16 11:41:36;;;;;;;0.30;0.20;;;34.90;28.80;;;;;;6226533;28;20061;-79
2022/07/16 11:44:40;;;;;;;3.47;0.45;;;35.10;28.50;;;;;;6226232;28;20049;-79
2022/07/16 11:47:42;;;;;;;4.18;0.52;;;35.10;28.30;;;;;;6226611;28;20108;-78
2022/07/16 11:50:46;;;;;;;3.05;0.63;;;34.90;28.80;;;;;;6226195;28;20081;-79
2022/07/16 11:53:51;;;;;;;2.05;0.50;;;34.90;28.50;;;;;;6226879;28;20050;-79
2022/07/16 11:56:52;;;;;;;7.93;0.75;;;35.00;28.60;;;;;;6226250;28;20049;-79
2022/07/16 11:59:55;;;;;;;5.95;0.57;;;34.80;28.50;;;;;;6230640;28;20045;-78
2022/07/16 12:02:57;;;;;;;2.08;0.40;;;35.00;28.50;;;;;;6230815;28;20050;-79
2022/07/16 12:06:05;;;;;;;1.65;0.30;;;35.20;28.40;;;;;;6232076;28;20049;-79
2022/07/16 12:09:06;;;;;;;2.70;0.60;;;35.40;28.20;;;;;;6231230;28;20525;-78
2022/07/16 12:12:13;;;;;;;0.80;0.30;;;35.60;27.90;;;;;;6230696;28;20069;-78
2022/07/16 12:15:15;;;;;;;1.27;0.33;;;35.60;27.90;;;;;;6230091;28;20046;-78
2022/07/16 12:18:17;;;;;;;1.30;0.50;;;35.60;27.70;;;;;;6229985;28;20064;-77
2022/07/16 12:21:26;;;;;;;3.95;0.40;;;35.70;27.80;;;;;;6229694;28;20058;-79
2022/07/16 12:24:29;;;;;;;4.88;0.82;;;36.00;27.70;;;;;;6229593;28;20176;-79
2022/07/16 12:27:44;;;;;;;0.90;0.30;;;36.20;27.50;;;;;;6230330;28;20046;-78
2022/07/16 12:30:52;;;;;;;1.95;0.40;;;36.50;27.50;;;;;;6230733;28;20062;-78
2022/07/16 12:33:55;;;;;;;1.33;0.50;;;36.60;27.40;;;;;;6231597;28;20046;-78
2022/07/16 12:36:58;;;;;;;1.50;0.43;;;36.60;27.30;;;;;;6230061;28;20049;-78
2022/07/16 12:40:11;;;;;;;3.33;0.40;;;36.60;27.40;;;;;;6230351;28;20050;-78
2022/07/16 12:43:13;;;;;;;5.25;0.45;;;36.30;27.80;;;;;;6215747;28;20046;-79
2022/07/16 12:46:15;;;;;;;2.17;0.45;;;36.30;28.00;;;;;;6230856;28;20122;-78
2022/07/16 12:49:20;;;;;;;1.10;0.47;;;36.50;27.50;;;;;;6231072;28;20052;-78
2022/07/16 12:52:23;;;;;;;1.35;0.60;;;36.30;27.60;;;;;;6225437;28;20053;-77
2022/07/16 12:58:50;;;;;;;1.27;0.60;;;36.40;27.70;;;;;;6229924;28;20050;-79
2022/07/16 13:01:52;;;;;;;2.45;0.80;;;36.60;27.50;;;;;;6235246;28;20122;-76
2022/07/16 13:04:54;;;;;;;1.77;0.75;;;36.70;27.40;;;;;;6231242;28;20521;-79
2022/07/16 13:07:57;;;;;;;2.75;0.77;;;36.90;27.40;;;;;;6229504;28;20526;-79
2022/07/16 13:10:59;;;;;;;0.45;0.25;;;37.10;27.20;;;;;;6229483;28;20049;-79
2022/07/16 13:14:00;;;;;;;2.35;0.60;;;37.10;27.30;;;;;;6230327;28;20049;-78
2022/07/16 13:17:02;;;;;;;1.08;0.40;;;36.80;27.40;;;;;;6227203;28;20046;-79
2022/07/16 13:20:05;;;;;;;4.47;0.75;;;36.60;27.70;;;;;;6213029;28;20694;-80
2022/07/16 13:23:08;;;;;;;2.47;0.85;;;36.80;27.50;;;;;;6221696;28;20057;-79
2022/07/16 13:26:10;;;;;;;2.22;0.57;;;36.70;27.80;;;;;;6230528;28;20046;-80
2022/07/16 13:29:13;;;;;;;0.75;0.30;;;36.60;27.70;;;;;;6230218;28;20125;-78
2022/07/16 13:32:15;;;;;;;2.95;0.30;;;36.40;27.80;;;;;;6237591;28;20046;-79
2022/07/16 13:35:17;;;;;;;3.78;1.27;;;36.50;28.60;;;;;;6251007;28;20105;-77
2022/07/16 13:38:20;;;;;;;2.50;1.02;;;36.60;27.90;;;;;;6234288;28;20521;-79
2022/07/16 13:41:23;;;;;;;2.88;0.98;;;36.70;27.90;;;;;;6235586;28;20067;-78
2022/07/16 13:44:24;;;;;;;1.38;0.40;;;36.80;27.90;;;;;;6230842;28;20128;-79
2022/07/16 13:47:26;;;;;;;1.67;0.55;;;37.00;27.70;;;;;;6230002;28;20060;-77
2022/07/16 13:50:29;;;;;;;1.15;0.38;;;37.00;27.60;;;;;;6228469;28;20052;-78
2022/07/16 13:53:32;;;;;;;1.08;0.50;;;37.10;27.50;;;;;;6228565;28;20062;-79
2022/07/16 13:56:33;;;;;;;2.25;0.40;;;36.90;27.70;;;;;;6228501;28;20057;-79
2022/07/16 13:59:35;;;;;;;2.53;0.52;;;36.80;28.00;;;;;;6230517;28;20046;-75
2022/07/16 14:02:37;;;;;;;3.83;1.40;;;36.80;28.20;;;;;;6229336;28;20418;-79
2022/07/16 14:05:39;;;;;;;1.50;0.52;;;36.80;27.90;;;;;;6229901;28;20116;-77
2022/07/16 14:08:42;;;;;;;3.83;0.50;;;36.90;27.90;;;;;;6229620;28;20064;-77
2022/07/16 14:11:43;;;;;;;1.65;1.17;;;36.90;27.90;;;;;;6228188;28;20073;-79
2022/07/16 14:14:46;;;;;;;2.15;0.98;;;36.80;28.00;;;;;;6229000;28;20046;-79
2022/07/16 14:17:48;;;;;;;1.15;0.55;;;36.90;27.80;;;;;;6227961;28;20049;-78
2022/07/16 14:20:50;;;;;;;2.20;0.50;;;37.00;27.80;;;;;;6225699;28;20121;-79
2022/07/16 14:23:53;;;;;;;1.77;0.50;;;36.60;28.00;;;;;;6222534;28;20499;-79
2022/07/16 14:26:55;;;;;;;1.58;0.40;;;36.00;28.20;;;;;;6231321;28;20056;-79
2022/07/16 14:29:57;;;;;;;5.72;0.68;;;35.20;28.30;;;;;;6229979;28;20119;-79
2022/07/16 14:32:59;;;;;;;2.63;0.70;;;35.10;29.10;;;;;;6228647;28;20466;-79
2022/07/16 14:36:00;;;;;;;1.67;0.40;;;35.30;29.00;;;;;;6228776;28;20050;-79
2022/07/16 14:39:04;;;;;;;1.25;0.40;;;35.40;28.50;;;;;;6230113;28;20054;-79
2022/07/16 14:42:06;;;;;;;1.45;0.60;;;34.90;28.90;;;;;;6228582;28;20052;-78
2022/07/16 14:45:10;;;;;;;1.20;0.60;;;35.10;28.90;;;;;;6228807;28;20415;-78
2022/07/16 14:48:12;;;;;;;0.93;0.40;;;35.10;29.00;;;;;;6228779;28;20050;-78
2022/07/16 14:51:13;;;;;;;2.05;0.32;;;35.40;28.90;;;;;;6228265;28;20049;-79
2022/07/16 14:54:17;;;;;;;1.90;1.00;;;35.60;28.50;;;;;;6199969;28;20539;-79
2022/07/16 14:57:18;;;;;;;1.38;0.70;;;36.00;28.30;;;;;;6215124;28;20112;-79
2022/07/16 15:00:20;;;;;;;2.28;0.68;;;36.20;28.20;;;;;;6230351;28;20141;-77
2022/07/16 15:03:22;;;;;;;1.10;0.55;;;36.20;28.20;;;;;;6227962;28;20525;-78
2022/07/16 15:06:24;;;;;;;6.05;0.60;;;36.30;27.90;;;;;;6226530;28;20056;-77
2022/07/16 15:09:27;;;;;;;0.85;0.40;;;36.30;28.10;;;;;;6226146;28;20056;-77
2022/07/16 15:12:30;;;;;;;3.55;0.60;;;36.20;28.20;;;;;;6225884;28;20069;-77
2022/07/16 15:15:31;;;;;;;2.30;0.60;;;36.20;28.10;;;;;;6228289;28;20180;-78
2022/07/16 15:18:34;;;;;;;1.67;0.65;;;36.30;28.10;;;;;;6227579;28;20057;-79
2022/07/16 15:21:36;;;;;;;1.55;0.43;;;35.80;28.20;;;;;;6226606;28;20045;-79
2022/07/16 15:24:39;;;;;;;3.30;0.77;;;34.90;28.50;;;;;;6228485;28;20428;-78
2022/07/16 15:27:41;;;;;;;0.75;0.40;;;34.10;29.30;;;;;;6229300;28;20045;-79
2022/07/16 15:30:43;;;;;;;1.75;0.50;;;33.80;29.30;;;;;;6223925;28;20495;-79
2022/07/16 15:33:45;;;;;;;2.75;1.00;;;33.50;29.60;;;;;;6226766;28;20050;-78
2022/07/16 15:36:47;;;;;;;2.58;0.82;;;33.60;29.50;;;;;;6226293;28;20095;-78
2022/07/16 15:39:50;;;;;;;1.77;0.68;;;33.40;29.50;;;;;;6227375;28;20061;-78
2022/07/16 15:42:51;;;;;;;1.98;1.23;;;33.50;29.70;;;;;;6226787;28;20046;-79
2022/07/16 15:45:53;;;;;;;4.30;1.05;;;33.60;29.90;;;;;;6226851;28;20048;-78
2022/07/16 15:48:55;;;;;;;3.67;0.60;;;33.90;29.60;;;;;;6227226;28;20092;-78
2022/07/16 15:51:58;;;;;;;4.57;0.77;;;34.10;29.10;;;;;;6226892;28;20046;-78
2022/07/16 15:55:01;;;;;;;3.05;1.40;;;33.80;29.30;;;;;;6230364;28;20046;-78
2022/07/16 15:58:03;;;;;;;1.10;0.65;;;33.40;29.40;;;;;;6231037;28;20057;-78
2022/07/16 16:01:05;;;;;;;2.95;0.65;;;33.20;29.80;;;;;;6228278;28;20049;-78
2022/07/16 16:04:07;;;;;;;2.85;0.45;;;33.30;29.90;;;;;;6227521;28;20050;-78